Climatologie pour Saint-Brevin les Pins
Jour • Résumé pour juin 17, 2017 Système :  Métrique    Anglais   Mixte
« - 1 jour
+ 1 jour »
Jour Semaine Mois Année Personnalisé
  Maximum : Minimum : Moyenne :
Température sous abri : 30.0 °C 13.9 °C 22.2 °C
Point de rosée : 17.6 °C 10.9 °C 14.5 °C
Humidité : 90 % 42 % 64 %
Vitesse du vent : 24.1 km/h 0.0 km/h 7.8 km/h
Rafale : 29.0 km/h - -
Direction :- - ENE
Pression : 1027.3 hPa 1021.6 hPa -
Précipitations : 0.0 mm    
Historical Graphs
 
 
Tableau de données pour juin 17, 2017
Heure Tempé Pt rosée Pression Vent Vitesse Rafale Humidité Taux pluie (/hr) Soleil
00:00 18.3 °C 12.3 °C 1027.3 hPa NE 9.7 km/h 20.9 km/h 68 % 0.0 mm 0 W/m2
00:10 18.1 °C 12.1 °C 1027.3 hPa NE 6.4 km/h 19.3 km/h 68 % 0.0 mm 0 W/m2
00:15 17.8 °C 12.0 °C 1027.3 hPa NNE 6.4 km/h 19.3 km/h 69 % 0.0 mm 0 W/m2
00:20 17.7 °C 11.9 °C 1027.3 hPa NE 4.8 km/h 17.7 km/h 69 % 0.0 mm 0 W/m2
00:25 17.7 °C 12.0 °C 1027.3 hPa North 8.0 km/h 20.9 km/h 69 % 0.0 mm 0 W/m2
00:30 17.7 °C 12.0 °C 1027.3 hPa NE 9.7 km/h 20.9 km/h 69 % 0.0 mm 0 W/m2
00:35 17.6 °C 11.9 °C 1027.3 hPa NNE 3.2 km/h 14.5 km/h 69 % 0.0 mm 0 W/m2
00:40 17.5 °C 12.0 °C 1027.3 hPa NNE 3.2 km/h 14.5 km/h 70 % 0.0 mm 0 W/m2
00:45 17.3 °C 11.8 °C 1027.3 hPa NE 4.8 km/h 11.3 km/h 70 % 0.0 mm 0 W/m2
00:50 17.3 °C 11.8 °C 1027.3 hPa ENE 11.3 km/h 14.5 km/h 70 % 0.0 mm 0 W/m2
00:55 17.0 °C 11.9 °C 1027.3 hPa NNE 6.4 km/h 14.5 km/h 72 % 0.0 mm 0 W/m2
01:00 17.0 °C 11.9 °C 1027.3 hPa NNE 1.6 km/h 14.5 km/h 72 % 0.0 mm 0 W/m2
01:05 16.9 °C 11.9 °C 1027.3 hPa NNE 6.4 km/h 14.5 km/h 72 % 0.0 mm 0 W/m2
01:10 16.8 °C 11.8 °C 1027.3 hPa Calm   16.1 km/h 72 % 0.0 mm 0 W/m2
01:15 16.8 °C 11.7 °C 1027.3 hPa NNE 9.7 km/h 16.1 km/h 72 % 0.0 mm 0 W/m2
01:20 16.8 °C 11.7 °C 1027.3 hPa NNE 9.7 km/h 14.5 km/h 72 % 0.0 mm 0 W/m2
01:25 16.7 °C 11.6 °C 1027.3 hPa North 8.0 km/h 14.5 km/h 72 % 0.0 mm 0 W/m2
01:30 16.6 °C 11.7 °C 1027.3 hPa North 6.4 km/h 14.5 km/h 73 % 0.0 mm 0 W/m2
01:35 16.4 °C 11.6 °C 1027.3 hPa NNE 11.3 km/h 14.5 km/h 73 % 0.0 mm 0 W/m2
01:40 16.5 °C 11.6 °C 1027.3 hPa Calm   16.1 km/h 73 % 0.0 mm 0 W/m2
01:45 16.4 °C 11.5 °C 1027.3 hPa NNE 8.0 km/h 16.1 km/h 73 % 0.0 mm 0 W/m2
01:50 16.2 °C 11.6 °C 1027.3 hPa NNE 3.2 km/h 14.5 km/h 74 % 0.0 mm 0 W/m2
01:55 16.1 °C 11.5 °C 1027.3 hPa NNE 11.3 km/h 14.5 km/h 74 % 0.0 mm 0 W/m2
02:10 15.8 °C 11.2 °C 1027.3 hPa East 8.0 km/h 17.7 km/h 74 % 0.0 mm 0 W/m2
02:15 15.9 °C 11.3 °C 1027.3 hPa NE 8.0 km/h 17.7 km/h 74 % 0.0 mm 0 W/m2
02:20 15.8 °C 11.2 °C 1027.3 hPa NE 4.8 km/h 14.5 km/h 74 % 0.0 mm 0 W/m2
02:25 15.7 °C 11.2 °C 1027.3 hPa ENE 11.3 km/h 17.7 km/h 75 % 0.0 mm 0 W/m2
02:30 15.6 °C 11.1 °C 1027.3 hPa NE 3.2 km/h 17.7 km/h 75 % 0.0 mm 0 W/m2
02:35 15.5 °C 11.1 °C 1027.3 hPa NNE 4.8 km/h 12.9 km/h 75 % 0.0 mm 0 W/m2
02:40 15.5 °C 11.1 °C 1027.3 hPa North 6.4 km/h 12.9 km/h 75 % 0.0 mm 0 W/m2
02:45 15.4 °C 11.0 °C 1027.3 hPa NNE 3.2 km/h 12.9 km/h 75 % 0.0 mm 0 W/m2
02:50 15.3 °C 10.9 °C 1027.3 hPa ENE 3.2 km/h 12.9 km/h 75 % 0.0 mm 0 W/m2
02:55 15.3 °C 11.1 °C 1027.3 hPa ENE 4.8 km/h 17.7 km/h 76 % 0.0 mm 0 W/m2
03:00 15.2 °C 11.0 °C 1027.3 hPa NE 4.8 km/h 17.7 km/h 76 % 0.0 mm 0 W/m2
03:05 15.2 °C 11.0 °C 1027.0 hPa NE 8.0 km/h 14.5 km/h 76 % 0.0 mm 0 W/m2
03:10 15.1 °C 11.1 °C 1027.0 hPa Calm   9.7 km/h 77 % 0.0 mm 0 W/m2
03:15 14.9 °C 10.9 °C 1027.0 hPa ENE 6.4 km/h 9.7 km/h 77 % 0.0 mm 0 W/m2
03:20 14.8 °C 11.0 °C 1027.0 hPa ENE 4.8 km/h 11.3 km/h 78 % 0.0 mm 0 W/m2
03:25 14.6 °C 11.0 °C 1027.0 hPa East 1.6 km/h 11.3 km/h 79 % 0.0 mm 0 W/m2
03:30 14.4 °C 11.0 °C 1027.0 hPa NE 3.2 km/h 11.3 km/h 80 % 0.0 mm 0 W/m2
03:35 14.3 °C 11.1 °C 1027.0 hPa Calm   11.3 km/h 81 % 0.0 mm 0 W/m2
03:40 14.2 °C 11.0 °C 1027.0 hPa NE 3.2 km/h 9.7 km/h 81 % 0.0 mm 0 W/m2
03:50 14.3 °C 11.1 °C 1027.0 hPa Calm   12.9 km/h 81 % 0.0 mm 0 W/m2
03:55 14.2 °C 11.2 °C 1027.0 hPa NE 3.2 km/h 11.3 km/h 82 % 0.0 mm 0 W/m2
04:00 14.3 °C 11.2 °C 1027.0 hPa NE 12.9 km/h 12.9 km/h 82 % 0.0 mm 0 W/m2
04:05 14.3 °C 11.2 °C 1027.0 hPa NE 3.2 km/h 12.9 km/h 82 % 0.0 mm 0 W/m2
04:10 14.4 °C 11.4 °C 1027.0 hPa ENE 4.8 km/h 12.9 km/h 82 % 0.0 mm 0 W/m2
04:15 14.4 °C 11.4 °C 1027.3 hPa NNE 3.2 km/h 12.9 km/h 82 % 0.0 mm 0 W/m2
04:20 14.4 °C 11.4 °C 1027.0 hPa Calm   9.7 km/h 82 % 0.0 mm 0 W/m2
04:25 14.4 °C 11.4 °C 1027.0 hPa NE 4.8 km/h 9.7 km/h 82 % 0.0 mm 0 W/m2
04:30 14.4 °C 11.4 °C 1027.0 hPa ENE 4.8 km/h 9.7 km/h 82 % 0.0 mm 0 W/m2
04:35 14.4 °C 11.5 °C 1027.3 hPa ENE 1.6 km/h 9.7 km/h 83 % 0.0 mm 0 W/m2
04:40 14.2 °C 11.4 °C 1027.3 hPa NE 3.2 km/h 8.0 km/h 83 % 0.0 mm 0 W/m2
04:45 14.2 °C 11.5 °C 1027.3 hPa ENE 3.2 km/h 9.7 km/h 84 % 0.0 mm 0 W/m2
04:50 14.1 °C 11.4 °C 1027.3 hPa NNE 4.8 km/h 9.7 km/h 84 % 0.0 mm 0 W/m2
04:55 14.0 °C 11.5 °C 1027.0 hPa NE 1.6 km/h 11.3 km/h 85 % 0.0 mm 0 W/m2
05:00 14.1 °C 11.6 °C 1027.0 hPa NNE 1.6 km/h 11.3 km/h 85 % 0.0 mm 0 W/m2
05:05 14.1 °C 11.6 °C 1027.0 hPa NNE 3.2 km/h 12.9 km/h 85 % 0.0 mm 0 W/m2
05:10 14.1 °C 11.7 °C 1027.0 hPa ENE 6.4 km/h 12.9 km/h 86 % 0.0 mm 0 W/m2
05:15 13.9 °C 11.6 °C 1027.0 hPa NNE 6.4 km/h 12.9 km/h 86 % 0.0 mm 0 W/m2
05:20 13.9 °C 11.8 °C 1027.0 hPa NE 3.2 km/h 12.9 km/h 87 % 0.0 mm 0 W/m2
05:25 13.9 °C 11.8 °C 1027.0 hPa NE 4.8 km/h 12.9 km/h 87 % 0.0 mm 0 W/m2
05:30 13.9 °C 11.8 °C 1027.0 hPa NE 3.2 km/h 16.1 km/h 87 % 0.0 mm 0 W/m2
05:35 13.9 °C 12.0 °C 1027.0 hPa NE 11.3 km/h 16.1 km/h 88 % 0.0 mm 0 W/m2
05:40 14.0 °C 12.0 °C 1027.0 hPa NNE 4.8 km/h 14.5 km/h 88 % 0.0 mm 0 W/m2
05:45 13.9 °C 12.0 °C 1027.0 hPa NE 3.2 km/h 12.9 km/h 88 % 0.0 mm 0 W/m2
05:50 13.9 °C 12.0 °C 1027.0 hPa North 4.8 km/h 12.9 km/h 88 % 0.0 mm 0 W/m2
05:55 13.9 °C 12.0 °C 1027.0 hPa ENE 6.4 km/h 12.9 km/h 88 % 0.0 mm 0 W/m2
06:00 13.9 °C 12.2 °C 1027.0 hPa ENE 8.0 km/h 16.1 km/h 89 % 0.0 mm 0 W/m2
06:05 13.9 °C 12.2 °C 1027.0 hPa East 12.9 km/h 16.1 km/h 89 % 0.0 mm 0 W/m2
06:10 14.1 °C 12.3 °C 1027.0 hPa NE 12.9 km/h 17.7 km/h 89 % 0.0 mm 0 W/m2
06:15 14.2 °C 12.4 °C 1027.0 hPa ENE 20.9 km/h 24.1 km/h 89 % 0.0 mm 5 W/m2
06:20 14.2 °C 12.4 °C 1027.0 hPa East 16.1 km/h 24.1 km/h 89 % 0.0 mm 5 W/m2
06:25 14.1 °C 12.3 °C 1027.0 hPa NE 6.4 km/h 20.9 km/h 89 % 0.0 mm 9 W/m2
06:30 14.1 °C 12.3 °C 1027.0 hPa ESE 11.3 km/h 17.7 km/h 89 % 0.0 mm 11 W/m2
06:40 14.1 °C 12.4 °C 1027.0 hPa NE 6.4 km/h 16.1 km/h 90 % 0.0 mm 14 W/m2
06:45 14.0 °C 12.4 °C 1027.0 hPa East 6.4 km/h 14.5 km/h 90 % 0.0 mm 18 W/m2
06:50 14.1 °C 12.4 °C 1027.0 hPa ENE 3.2 km/h 14.5 km/h 90 % 0.0 mm 19 W/m2
06:55 14.1 °C 12.5 °C 1027.0 hPa ENE 6.4 km/h 14.5 km/h 90 % 0.0 mm 21 W/m2
07:00 14.2 °C 12.5 °C 1027.0 hPa ENE 6.4 km/h 12.9 km/h 90 % 0.0 mm 25 W/m2
07:05 14.2 °C 12.6 °C 1027.0 hPa NE 6.4 km/h 14.5 km/h 90 % 0.0 mm 26 W/m2
07:10 14.3 °C 12.7 °C 1027.0 hPa East 9.7 km/h 14.5 km/h 90 % 0.0 mm 28 W/m2
07:15 14.4 °C 12.8 °C 1027.0 hPa ENE 4.8 km/h 14.5 km/h 90 % 0.0 mm 30 W/m2
07:20 14.5 °C 12.9 °C 1027.0 hPa ENE 3.2 km/h 14.5 km/h 90 % 0.0 mm 32 W/m2
07:25 14.7 °C 13.0 °C 1027.0 hPa NE 8.0 km/h 14.5 km/h 90 % 0.0 mm 33 W/m2
07:30 14.8 °C 13.0 °C 1027.0 hPa East 3.2 km/h 14.5 km/h 89 % 0.0 mm 35 W/m2
07:40 15.1 °C 13.1 °C 1027.0 hPa Calm   14.5 km/h 88 % 0.0 mm 39 W/m2
07:45 15.2 °C 13.2 °C 1027.0 hPa ENE 6.4 km/h 12.9 km/h 88 % 0.0 mm 40 W/m2
07:55 15.6 °C 13.4 °C 1027.0 hPa ENE 8.0 km/h 17.7 km/h 87 % 0.0 mm 192 W/m2
08:00 15.7 °C 13.4 °C 1027.0 hPa ENE 16.1 km/h 17.7 km/h 86 % 0.0 mm 207 W/m2
08:05 15.9 °C 13.4 °C 1027.0 hPa ENE 3.2 km/h 20.9 km/h 85 % 0.0 mm 223 W/m2
08:10 16.2 °C 13.5 °C 1027.0 hPa ESE 11.3 km/h 20.9 km/h 84 % 0.0 mm 237 W/m2
08:15 16.4 °C 13.7 °C 1027.0 hPa East 14.5 km/h 17.7 km/h 84 % 0.0 mm 253 W/m2
08:20 16.6 °C 13.7 °C 1027.0 hPa ENE 1.6 km/h 16.1 km/h 83 % 0.0 mm 267 W/m2
08:25 16.8 °C 13.7 °C 1027.0 hPa ESE 3.2 km/h 16.1 km/h 82 % 0.0 mm 281 W/m2
08:30 17.0 °C 13.7 °C 1027.0 hPa NE 9.7 km/h 16.1 km/h 81 % 0.0 mm 295 W/m2
08:35 17.2 °C 13.7 °C 1027.0 hPa East 12.9 km/h 16.1 km/h 80 % 0.0 mm 311 W/m2
08:40 17.4 °C 13.9 °C 1027.0 hPa ENE 4.8 km/h 22.5 km/h 80 % 0.0 mm 325 W/m2
08:45 17.6 °C 13.9 °C 1027.0 hPa East 3.2 km/h 22.5 km/h 79 % 0.0 mm 339 W/m2
08:50 17.9 °C 14.0 °C 1027.0 hPa NE 1.6 km/h 16.1 km/h 78 % 0.0 mm 353 W/m2
08:55 18.1 °C 13.8 °C 1027.0 hPa ENE 8.0 km/h 17.7 km/h 76 % 0.0 mm 369 W/m2
09:00 18.2 °C 13.7 °C 1027.0 hPa East 12.9 km/h 27.4 km/h 75 % 0.0 mm 383 W/m2
09:05 18.4 °C 13.9 °C 1027.0 hPa East 6.4 km/h 27.4 km/h 75 % 0.0 mm 396 W/m2
09:10 18.6 °C 14.0 °C 1027.0 hPa NE 6.4 km/h 17.7 km/h 75 % 0.0 mm 411 W/m2
09:15 18.8 °C 13.9 °C 1027.0 hPa ENE 4.8 km/h 16.1 km/h 73 % 0.0 mm 424 W/m2
09:20 19.1 °C 14.4 °C 1027.0 hPa ENE 6.4 km/h 19.3 km/h 74 % 0.0 mm 441 W/m2
09:25 19.4 °C 14.5 °C 1027.0 hPa ENE 8.0 km/h 19.3 km/h 73 % 0.0 mm 455 W/m2
09:30 19.4 °C 13.6 °C 1027.0 hPa ESE 12.9 km/h 20.9 km/h 69 % 0.0 mm 469 W/m2
09:35 19.4 °C 14.0 °C 1027.0 hPa East 12.9 km/h 20.9 km/h 71 % 0.0 mm 485 W/m2
09:40 19.7 °C 14.0 °C 1027.0 hPa East 4.8 km/h 17.7 km/h 70 % 0.0 mm 497 W/m2
09:45 20.0 °C 13.9 °C 1027.0 hPa ENE 1.6 km/h 19.3 km/h 68 % 0.0 mm 510 W/m2
09:50 20.1 °C 13.8 °C 1026.6 hPa ESE 14.5 km/h 19.3 km/h 67 % 0.0 mm 524 W/m2
09:55 20.2 °C 14.1 °C 1026.6 hPa East 9.7 km/h 17.7 km/h 68 % 0.0 mm 538 W/m2
10:00 20.4 °C 13.8 °C 1027.0 hPa East 8.0 km/h 17.7 km/h 66 % 0.0 mm 552 W/m2
10:05 20.9 °C 14.4 °C 1026.6 hPa ESE 4.8 km/h 17.7 km/h 66 % 0.0 mm 566 W/m2
10:10 21.0 °C 13.9 °C 1026.6 hPa ENE 12.9 km/h 20.9 km/h 64 % 0.0 mm 578 W/m2
10:15 20.8 °C 14.0 °C 1026.6 hPa East 12.9 km/h 20.9 km/h 65 % 0.0 mm 589 W/m2
10:20 21.1 °C 14.2 °C 1026.6 hPa NE 9.7 km/h 20.9 km/h 65 % 0.0 mm 603 W/m2
10:25 21.5 °C 14.6 °C 1026.6 hPa East 4.8 km/h 20.9 km/h 65 % 0.0 mm 615 W/m2
10:30 21.7 °C 14.1 °C 1026.6 hPa ESE 3.2 km/h 17.7 km/h 62 % 0.0 mm 628 W/m2
10:35 21.6 °C 14.2 °C 1026.6 hPa SE 8.0 km/h 17.7 km/h 63 % 0.0 mm 640 W/m2
10:40 21.7 °C 14.1 °C 1026.6 hPa SE 16.1 km/h 20.9 km/h 62 % 0.0 mm 652 W/m2
10:45 21.9 °C 14.8 °C 1026.6 hPa ENE 6.4 km/h 20.9 km/h 64 % 0.0 mm 663 W/m2
10:50 22.2 °C 14.5 °C 1026.6 hPa East 8.0 km/h 19.3 km/h 62 % 0.0 mm 673 W/m2
10:55 22.5 °C 15.3 °C 1026.3 hPa ENE 12.9 km/h 17.7 km/h 64 % 0.0 mm 684 W/m2
11:00 22.6 °C 14.7 °C 1026.3 hPa East 17.7 km/h 17.7 km/h 61 % 0.0 mm 698 W/m2
11:05 22.6 °C 14.7 °C 1026.3 hPa ESE 12.9 km/h 22.5 km/h 61 % 0.0 mm 708 W/m2
11:10 22.6 °C 14.7 °C 1026.3 hPa East 8.0 km/h 22.5 km/h 61 % 0.0 mm 717 W/m2
11:15 22.8 °C 14.9 °C 1026.3 hPa NE 11.3 km/h 22.5 km/h 61 % 0.0 mm 728 W/m2
11:20 23.0 °C 15.1 °C 1026.0 hPa SE 6.4 km/h 20.9 km/h 61 % 0.0 mm 737 W/m2
11:25 23.4 °C 15.0 °C 1026.0 hPa ESE 6.4 km/h 20.9 km/h 59 % 0.0 mm 749 W/m2
11:30 23.2 °C 14.7 °C 1026.0 hPa ENE 16.1 km/h 24.1 km/h 59 % 0.0 mm 756 W/m2
11:35 23.3 °C 15.3 °C 1026.0 hPa ENE 17.7 km/h 24.1 km/h 61 % 0.0 mm 766 W/m2
11:40 23.6 °C 15.1 °C 1026.0 hPa ESE 8.0 km/h 20.9 km/h 59 % 0.0 mm 777 W/m2
11:45 23.9 °C 15.4 °C 1026.0 hPa ENE 11.3 km/h 20.9 km/h 59 % 0.0 mm 788 W/m2
11:50 24.1 °C 15.3 °C 1026.0 hPa East 6.4 km/h 20.9 km/h 58 % 0.0 mm 795 W/m2
11:55 24.3 °C 15.5 °C 1026.0 hPa ESE 6.4 km/h 17.7 km/h 58 % 0.0 mm 802 W/m2
12:00 24.4 °C 15.0 °C 1026.0 hPa SE 16.1 km/h 24.1 km/h 56 % 0.0 mm 812 W/m2
12:05 24.4 °C 15.3 °C 1026.0 hPa SE 14.5 km/h 24.1 km/h 57 % 0.0 mm 817 W/m2
12:10 24.6 °C 15.2 °C 1026.0 hPa NE 14.5 km/h 24.1 km/h 56 % 0.0 mm 824 W/m2
12:15 24.5 °C 15.1 °C 1026.0 hPa ENE 3.2 km/h 24.1 km/h 56 % 0.0 mm 831 W/m2
12:20 24.6 °C 14.9 °C 1026.0 hPa East 4.8 km/h 24.1 km/h 55 % 0.0 mm 837 W/m2
12:25 24.8 °C 15.1 °C 1026.0 hPa ENE 8.0 km/h 24.1 km/h 55 % 0.0 mm 846 W/m2
12:30 24.6 °C 15.8 °C 1026.0 hPa East 9.7 km/h 24.1 km/h 58 % 0.0 mm 849 W/m2
12:35 25.7 °C 16.0 °C 1026.0 hPa ENE 17.7 km/h 24.1 km/h 55 % 0.0 mm 853 W/m2
12:40 25.9 °C 15.6 °C 1026.0 hPa ESE 17.7 km/h 20.9 km/h 53 % 0.0 mm 861 W/m2
12:45 26.2 °C 17.0 °C 1026.0 hPa ESE 6.4 km/h 20.9 km/h 57 % 0.0 mm 870 W/m2
12:50 26.1 °C 16.1 °C 1026.0 hPa ENE 11.3 km/h 20.9 km/h 54 % 0.0 mm 872 W/m2
12:55 26.1 °C 16.6 °C 1025.6 hPa Calm   16.1 km/h 56 % 0.0 mm 879 W/m2
13:00 26.3 °C 16.3 °C 1025.6 hPa ESE 4.8 km/h 17.7 km/h 54 % 0.0 mm 886 W/m2
13:05 26.4 °C 16.1 °C 1025.6 hPa NE 9.7 km/h 17.7 km/h 53 % 0.0 mm 886 W/m2
13:10 26.6 °C 16.2 °C 1025.6 hPa East 3.2 km/h 27.4 km/h 53 % 0.0 mm 891 W/m2
13:15 26.9 °C 16.2 °C 1025.3 hPa NNE 11.3 km/h 27.4 km/h 52 % 0.0 mm 896 W/m2
13:20 27.1 °C 16.1 °C 1025.3 hPa East 11.3 km/h 19.3 km/h 51 % 0.0 mm 898 W/m2
13:25 26.9 °C 15.9 °C 1025.3 hPa ENE 16.1 km/h 24.1 km/h 51 % 0.0 mm 900 W/m2
13:30 26.9 °C 16.5 °C 1025.3 hPa NE 6.4 km/h 24.1 km/h 53 % 0.0 mm 904 W/m2
13:35 27.4 °C 17.3 °C 1025.3 hPa ENE 12.9 km/h 20.9 km/h 54 % 0.0 mm 904 W/m2
13:40 27.6 °C 16.8 °C 1025.3 hPa East 8.0 km/h 19.3 km/h 52 % 0.0 mm 909 W/m2
13:45 27.6 °C 17.5 °C 1025.3 hPa ENE 4.8 km/h 24.1 km/h 54 % 0.0 mm 905 W/m2
13:50 27.5 °C 16.5 °C 1025.3 hPa NNE 8.0 km/h 24.1 km/h 51 % 0.0 mm 907 W/m2
13:55 27.7 °C 16.0 °C 1025.3 hPa NE 19.3 km/h 20.9 km/h 49 % 0.0 mm 909 W/m2
14:00 27.7 °C 16.0 °C 1024.9 hPa ENE 17.7 km/h 22.5 km/h 49 % 0.0 mm 909 W/m2
14:05 27.8 °C 16.1 °C 1024.9 hPa ENE 14.5 km/h 22.5 km/h 49 % 0.0 mm 909 W/m2
14:10 27.9 °C 16.5 °C 1024.9 hPa East 8.0 km/h 22.5 km/h 50 % 0.0 mm 909 W/m2
14:15 27.8 °C 15.8 °C 1024.9 hPa ENE 6.4 km/h 22.5 km/h 48 % 0.0 mm 912 W/m2
14:20 27.8 °C 16.1 °C 1024.9 hPa ESE 19.3 km/h 22.5 km/h 49 % 0.0 mm 909 W/m2
14:25 28.4 °C 16.4 °C 1024.9 hPa NE 12.9 km/h 22.5 km/h 48 % 0.0 mm 905 W/m2
14:30 28.3 °C 17.5 °C 1024.9 hPa ENE 17.7 km/h 22.5 km/h 52 % 0.0 mm 905 W/m2
14:35 28.5 °C 16.4 °C 1024.6 hPa SE 6.4 km/h 19.3 km/h 48 % 0.0 mm 905 W/m2
14:40 28.3 °C 16.3 °C 1024.6 hPa East 17.7 km/h 25.7 km/h 48 % 0.0 mm 902 W/m2
14:45 28.3 °C 16.5 °C 1024.9 hPa NNE 14.5 km/h 25.7 km/h 49 % 0.0 mm 893 W/m2
14:50 28.6 °C 16.1 °C 1024.6 hPa East 11.3 km/h 22.5 km/h 47 % 0.0 mm 891 W/m2
14:55 28.8 °C 16.0 °C 1024.6 hPa ENE 16.1 km/h 24.1 km/h 46 % 0.0 mm 888 W/m2
15:00 28.6 °C 15.9 °C 1024.6 hPa East 9.7 km/h 24.1 km/h 46 % 0.0 mm 891 W/m2
15:05 29.0 °C 16.5 °C 1024.6 hPa ENE 19.3 km/h 20.9 km/h 47 % 0.0 mm 882 W/m2
15:10 28.9 °C 16.2 °C 1024.6 hPa ESE 6.4 km/h 22.5 km/h 46 % 0.0 mm 879 W/m2
15:15 28.7 °C 15.9 °C 1024.3 hPa NNE 4.8 km/h 24.1 km/h 46 % 0.0 mm 874 W/m2
15:20 28.9 °C 15.8 °C 1024.3 hPa East 14.5 km/h 29.0 km/h 45 % 0.0 mm 870 W/m2
15:25 29.1 °C 16.3 °C 1024.3 hPa East 12.9 km/h 29.0 km/h 46 % 0.0 mm 867 W/m2
15:30 29.0 °C 15.9 °C 1024.3 hPa East 11.3 km/h 27.4 km/h 45 % 0.0 mm 860 W/m2
15:35 28.8 °C 16.4 °C 1024.3 hPa NE 6.4 km/h 27.4 km/h 47 % 0.0 mm 856 W/m2
15:40 29.2 °C 17.1 °C 1024.3 hPa NNE 12.9 km/h 16.1 km/h 48 % 0.0 mm 846 W/m2
15:45 29.3 °C 15.8 °C 1024.3 hPa ENE 11.3 km/h 20.9 km/h 44 % 0.0 mm 840 W/m2
15:50 29.4 °C 16.3 °C 1024.3 hPa NE 9.7 km/h 20.9 km/h 45 % 0.0 mm 831 W/m2
15:55 29.6 °C 16.0 °C 1024.3 hPa ESE 6.4 km/h 19.3 km/h 44 % 0.0 mm 826 W/m2
16:00 29.4 °C 15.9 °C 1023.9 hPa East 11.3 km/h 22.5 km/h 44 % 0.0 mm 819 W/m2
16:05 29.4 °C 16.2 °C 1023.9 hPa ENE 14.5 km/h 22.5 km/h 45 % 0.0 mm 810 W/m2
16:10 29.3 °C 16.2 °C 1023.9 hPa ENE 6.4 km/h 22.5 km/h 45 % 0.0 mm 803 W/m2
16:15 29.1 °C 15.6 °C 1023.9 hPa NE 9.7 km/h 25.7 km/h 44 % 0.0 mm 791 W/m2
16:20 29.5 °C 16.7 °C 1023.9 hPa ENE 17.7 km/h 25.7 km/h 46 % 0.0 mm 786 W/m2
16:25 29.4 °C 16.2 °C 1023.9 hPa NE 8.0 km/h 25.7 km/h 45 % 0.0 mm 773 W/m2
16:30 29.3 °C 16.1 °C 1023.9 hPa ENE 4.8 km/h 25.7 km/h 45 % 0.0 mm 770 W/m2
16:35 29.4 °C 16.2 °C 1023.9 hPa ENE 14.5 km/h 25.7 km/h 45 % 0.0 mm 759 W/m2
16:40 29.6 °C 16.0 °C 1023.9 hPa ENE 6.4 km/h 19.3 km/h 44 % 0.0 mm 751 W/m2
16:45 29.3 °C 16.1 °C 1023.9 hPa East 11.3 km/h 24.1 km/h 45 % 0.0 mm 740 W/m2
16:50 29.3 °C 16.1 °C 1023.6 hPa ENE 17.7 km/h 25.7 km/h 45 % 0.0 mm 729 W/m2
16:55 29.4 °C 15.9 °C 1023.6 hPa ENE 8.0 km/h 25.7 km/h 44 % 0.0 mm 715 W/m2
17:00 29.6 °C 16.0 °C 1023.6 hPa ENE 14.5 km/h 22.5 km/h 44 % 0.0 mm 708 W/m2
17:05 29.6 °C 15.7 °C 1023.6 hPa ESE 1.6 km/h 20.9 km/h 43 % 0.0 mm 700 W/m2
17:10 30.0 °C 16.1 °C 1023.6 hPa East 4.8 km/h 20.9 km/h 43 % 0.0 mm 686 W/m2
17:15 29.8 °C 16.2 °C 1023.2 hPa ENE 14.5 km/h 20.9 km/h 44 % 0.0 mm 671 W/m2
17:20 29.7 °C 15.8 °C 1023.2 hPa ENE 4.8 km/h 24.1 km/h 43 % 0.0 mm 661 W/m2
17:25 29.7 °C 15.4 °C 1023.2 hPa East 4.8 km/h 24.1 km/h 42 % 0.0 mm 654 W/m2
17:30 29.6 °C 16.8 °C 1023.2 hPa NE 6.4 km/h 20.9 km/h 46 % 0.0 mm 635 W/m2
17:35 29.8 °C 16.3 °C 1023.2 hPa East 8.0 km/h 17.7 km/h 44 % 0.0 mm 622 W/m2
17:40 29.8 °C 15.9 °C 1023.2 hPa ENE 16.1 km/h 20.9 km/h 43 % 0.0 mm 619 W/m2
17:45 29.7 °C 16.1 °C 1023.2 hPa ENE 17.7 km/h 20.9 km/h 44 % 0.0 mm 603 W/m2
17:50 29.6 °C 16.4 °C 1023.2 hPa ENE 3.2 km/h 20.9 km/h 45 % 0.0 mm 589 W/m2
17:55 29.8 °C 15.9 °C 1022.9 hPa ESE 6.4 km/h 19.3 km/h 43 % 0.0 mm 575 W/m2
18:00 29.8 °C 16.3 °C 1022.9 hPa ENE 12.9 km/h 17.7 km/h 44 % 0.0 mm 564 W/m2
18:05 29.5 °C 16.7 °C 1022.9 hPa East 3.2 km/h 19.3 km/h 46 % 0.0 mm 552 W/m2
18:10 29.7 °C 16.2 °C 1022.9 hPa ENE 16.1 km/h 19.3 km/h 44 % 0.0 mm 540 W/m2
18:15 29.7 °C 16.1 °C 1022.9 hPa North 8.0 km/h 24.1 km/h 44 % 0.0 mm 527 W/m2
18:20 29.6 °C 16.4 °C 1022.6 hPa ENE 12.9 km/h 24.1 km/h 45 % 0.0 mm 515 W/m2
18:25 29.6 °C 17.1 °C 1022.6 hPa NE 6.4 km/h 25.7 km/h 47 % 0.0 mm 499 W/m2
18:30 29.6 °C 16.1 °C 1022.6 hPa ESE 6.4 km/h 25.7 km/h 44 % 0.0 mm 483 W/m2
18:40 29.2 °C 16.4 °C 1022.6 hPa ENE 8.0 km/h 24.1 km/h 46 % 0.0 mm 459 W/m2
18:45 29.3 °C 15.8 °C 1022.6 hPa East 14.5 km/h 22.5 km/h 44 % 0.0 mm 445 W/m2
18:50 29.4 °C 15.9 °C 1022.2 hPa East 24.1 km/h 24.1 km/h 44 % 0.0 mm 431 W/m2
18:55 29.4 °C 15.9 °C 1022.2 hPa East 14.5 km/h 24.1 km/h 44 % 0.0 mm 417 W/m2
19:00 29.4 °C 16.3 °C 1022.2 hPa East 8.0 km/h 24.1 km/h 45 % 0.0 mm 403 W/m2
19:10 29.5 °C 16.3 °C 1022.2 hPa East 4.8 km/h 22.5 km/h 45 % 0.0 mm 371 W/m2
19:15 29.4 °C 16.2 °C 1022.2 hPa NNE 1.6 km/h 22.5 km/h 45 % 0.0 mm 357 W/m2
19:20 29.3 °C 15.8 °C 1022.2 hPa ENE 11.3 km/h 20.9 km/h 44 % 0.0 mm 346 W/m2
19:25 29.3 °C 16.1 °C 1022.2 hPa NNE 4.8 km/h 20.9 km/h 45 % 0.0 mm 334 W/m2
19:30 29.0 °C 16.5 °C 1022.2 hPa East 9.7 km/h 22.5 km/h 47 % 0.0 mm 318 W/m2
19:35 28.8 °C 16.0 °C 1022.2 hPa NW 6.4 km/h 22.5 km/h 46 % 0.0 mm 295 W/m2
19:40 28.8 °C 16.1 °C 1022.2 hPa East 3.2 km/h 24.1 km/h 46 % 0.0 mm 267 W/m2
19:45 28.8 °C 16.3 °C 1022.2 hPa NE 9.7 km/h 24.1 km/h 47 % 0.0 mm 237 W/m2
19:50 28.7 °C 15.9 °C 1022.2 hPa East 8.0 km/h 27.4 km/h 46 % 0.0 mm 216 W/m2
19:55 28.6 °C 15.9 °C 1022.2 hPa ENE 1.6 km/h 27.4 km/h 46 % 0.0 mm 200 W/m2
20:00 28.3 °C 15.9 °C 1021.9 hPa NE 8.0 km/h 24.1 km/h 47 % 0.0 mm 192 W/m2
20:05 28.2 °C 16.1 °C 1021.9 hPa East 8.0 km/h 20.9 km/h 48 % 0.0 mm 186 W/m2
20:10 28.2 °C 15.8 °C 1021.9 hPa ENE 8.0 km/h 20.9 km/h 47 % 0.0 mm 181 W/m2
20:15 28.2 °C 16.2 °C 1021.9 hPa ENE 11.3 km/h 17.7 km/h 48 % 0.0 mm 160 W/m2
20:20 28.1 °C 16.4 °C 1021.9 hPa ENE 4.8 km/h 20.9 km/h 49 % 0.0 mm 137 W/m2
20:25 27.9 °C 15.9 °C 1021.9 hPa NE 12.9 km/h 20.9 km/h 48 % 0.0 mm 123 W/m2
20:30 27.8 °C 16.1 °C 1021.9 hPa ENE 16.1 km/h 20.9 km/h 49 % 0.0 mm 114 W/m2
20:35 27.6 °C 15.9 °C 1021.9 hPa ENE 8.0 km/h 17.7 km/h 49 % 0.0 mm 97 W/m2
20:40 27.3 °C 16.3 °C 1021.9 hPa ENE 4.8 km/h 17.7 km/h 51 % 0.0 mm 47 W/m2
20:45 27.3 °C 16.3 °C 1021.9 hPa ENE 11.3 km/h 19.3 km/h 51 % 0.0 mm 35 W/m2
20:50 27.2 °C 16.2 °C 1021.9 hPa NE 6.4 km/h 19.3 km/h 51 % 0.0 mm 32 W/m2
20:55 27.1 °C 16.4 °C 1021.9 hPa ESE 4.8 km/h 17.7 km/h 52 % 0.0 mm 42 W/m2
21:00 26.8 °C 16.1 °C 1021.9 hPa ENE 8.0 km/h 16.1 km/h 52 % 0.0 mm 28 W/m2
21:05 26.8 °C 16.1 °C 1021.9 hPa ENE 12.9 km/h 16.1 km/h 52 % 0.0 mm 26 W/m2
21:10 26.6 °C 16.2 °C 1021.9 hPa NE 6.4 km/h 17.7 km/h 53 % 0.0 mm 23 W/m2
21:15 26.4 °C 16.1 °C 1021.6 hPa ENE 8.0 km/h 17.7 km/h 53 % 0.0 mm 23 W/m2
21:20 26.4 °C 16.3 °C 1021.6 hPa North 6.4 km/h 17.7 km/h 54 % 0.0 mm 19 W/m2
21:25 26.1 °C 16.6 °C 1021.6 hPa East 4.8 km/h 17.7 km/h 56 % 0.0 mm 18 W/m2
21:30 25.9 °C 16.2 °C 1021.6 hPa NE 1.6 km/h 11.3 km/h 55 % 0.0 mm 16 W/m2
21:35 25.6 °C 16.7 °C 1021.6 hPa ENE 4.8 km/h 12.9 km/h 58 % 0.0 mm 14 W/m2
21:40 25.5 °C 16.4 °C 1021.6 hPa ENE 6.4 km/h 14.5 km/h 57 % 0.0 mm 12 W/m2
21:45 25.4 °C 16.3 °C 1021.9 hPa East 4.8 km/h 17.7 km/h 57 % 0.0 mm 11 W/m2
21:50 25.4 °C 16.3 °C 1021.6 hPa East 1.6 km/h 17.7 km/h 57 % 0.0 mm 9 W/m2
21:55 25.3 °C 16.1 °C 1021.6 hPa ENE 6.4 km/h 16.1 km/h 57 % 0.0 mm 7 W/m2
22:00 25.0 °C 16.2 °C 1021.6 hPa ENE 6.4 km/h 16.1 km/h 58 % 0.0 mm 5 W/m2
22:05 24.7 °C 16.1 °C 1021.6 hPa NE 4.8 km/h 14.5 km/h 59 % 0.0 mm 0 W/m2
22:15 24.5 °C 16.2 °C 1021.6 hPa East 1.6 km/h 14.5 km/h 60 % 0.0 mm 0 W/m2
22:20 24.2 °C 16.2 °C 1021.9 hPa ENE 3.2 km/h 9.7 km/h 61 % 0.0 mm 0 W/m2
22:25 24.0 °C 16.3 °C 1021.9 hPa NNE 4.8 km/h 9.7 km/h 62 % 0.0 mm 0 W/m2
22:30 23.6 °C 16.1 °C 1021.9 hPa Calm   8.0 km/h 63 % 0.0 mm 0 W/m2
22:35 23.7 °C 16.2 °C 1021.9 hPa ENE 3.2 km/h 8.0 km/h 63 % 0.0 mm 0 W/m2
22:40 23.7 °C 16.2 °C 1021.9 hPa ENE 1.6 km/h 8.0 km/h 63 % 0.0 mm 0 W/m2
22:45 23.4 °C 16.2 °C 1022.2 hPa Calm   8.0 km/h 64 % 0.0 mm 0 W/m2
22:50 23.1 °C 16.4 °C 1022.2 hPa East 1.6 km/h 9.7 km/h 66 % 0.0 mm 0 W/m2
22:55 22.9 °C 16.4 °C 1022.2 hPa NE 6.4 km/h 9.7 km/h 67 % 0.0 mm 0 W/m2
23:00 22.4 °C 16.2 °C 1022.2 hPa NNE 6.4 km/h 9.7 km/h 68 % 0.0 mm 0 W/m2
23:05 22.4 °C 16.2 °C 1022.2 hPa NE 3.2 km/h 12.9 km/h 68 % 0.0 mm 0 W/m2
23:10 22.4 °C 16.5 °C 1022.2 hPa NE 3.2 km/h 12.9 km/h 69 % 0.0 mm 0 W/m2
23:15 22.6 °C 17.1 °C 1022.2 hPa NE 4.8 km/h 16.1 km/h 71 % 0.0 mm 0 W/m2
23:20 22.8 °C 17.2 °C 1022.2 hPa NNE 3.2 km/h 16.1 km/h 71 % 0.0 mm 0 W/m2
23:25 22.7 °C 17.4 °C 1022.6 hPa NE 1.6 km/h 16.1 km/h 72 % 0.0 mm 0 W/m2
23:30 22.6 °C 17.5 °C 1022.2 hPa East 6.4 km/h 16.1 km/h 73 % 0.0 mm 0 W/m2
23:35 22.5 °C 17.6 °C 1022.2 hPa NE 4.8 km/h 12.9 km/h 74 % 0.0 mm 0 W/m2
23:40 22.4 °C 17.6 °C 1022.2 hPa NE 4.8 km/h 16.1 km/h 74 % 0.0 mm 0 W/m2
23:45 22.3 °C 17.5 °C 1022.2 hPa NNE 4.8 km/h 16.1 km/h 74 % 0.0 mm 0 W/m2
23:50 22.2 °C 17.5 °C 1022.2 hPa NE 11.3 km/h 16.1 km/h 75 % 0.0 mm 0 W/m2
23:55 22.1 °C 17.5 °C 1022.2 hPa NE 3.2 km/h 16.1 km/h 75 % 0.0 mm 0 W/m2
Avec l'autorisation de Weather Underground - 1.75 mb